Time;durP1;ratioP1;P1;durP2;ratioP2;P2;SDS_P1;SDS_P2;PMS_P1;PMS_P2;Temp;Humidity;BMP_temperature;BMP_pressure;BME280_temperature;BME280_humidity;BME280_pressure;Samples;Min_cycle;Max_cycle;Signal;HPM_P1;HPM_P2
2022/03/24 00:00:01;;;;;;;127.38;58.80;;;;;;;-0.24;65.57;95398.74;1655385;85;21483;-52
2022/03/24 00:02:29;;;;;;;118.25;53.05;;;;;;;-0.29;65.53;95391.51;1654966;85;21482;-50
2022/03/24 00:04:57;;;;;;;105.50;49.18;;;;;;;-0.37;65.42;95391.20;1654410;84;21878;-52
2022/03/24 00:07:26;;;;;;;139.72;62.40;;;;;;;-0.44;65.40;95385.69;1645971;85;20996;-51
2022/03/24 00:09:53;;;;;;;125.30;58.55;;;;;;;-0.52;65.68;95389.41;1656851;85;21179;-52
2022/03/24 00:12:24;;;;;;;142.70;63.20;;;;;;;-0.60;65.93;95375.58;1663302;85;21103;-52
2022/03/24 00:14:53;;;;;;;141.68;64.42;;;;;;;-0.60;66.38;95381.75;1642541;86;21080;-53
2022/03/24 00:17:20;;;;;;;153.95;69.03;;;;;;;-0.57;66.46;95374.27;1648563;86;22041;-50
2022/03/24 00:19:50;;;;;;;157.67;72.85;;;;;;;-0.52;66.54;95366.44;1650943;85;21441;-53
2022/03/24 00:22:18;;;;;;;150.30;68.02;;;;;;;-0.48;66.49;95369.41;1648887;86;21123;-52
2022/03/24 00:24:45;;;;;;;155.72;70.30;;;;;;;-0.48;66.35;95361.86;1651442;85;21051;-53
2022/03/24 00:27:15;;;;;;;173.32;75.83;;;;;;;-0.49;66.51;95361.09;1648492;85;21453;-52
2022/03/24 00:29:43;;;;;;;154.20;71.53;;;;;;;-0.48;66.44;95352.41;1650469;85;21592;-50
2022/03/24 00:32:10;;;;;;;138.03;63.30;;;;;;;-0.55;66.67;95346.90;1649966;85;21071;-49
2022/03/24 00:34:40;;;;;;;125.85;58.63;;;;;;;-0.66;66.95;95351.34;1648140;86;21194;-53
2022/03/24 00:37:09;;;;;;;110.35;51.20;;;;;;;-0.74;67.36;95349.67;1636517;86;21047;-52
2022/03/24 00:39:37;;;;;;;101.58;47.05;;;;;;;-0.81;67.61;95339.53;1651342;85;21111;-52
2022/03/24 00:42:11;;;;;;;122.37;55.63;;;;;;;-0.84;68.03;95339.45;1649144;85;21082;-50
2022/03/24 00:44:42;;;;;;;132.37;57.83;;;;;;;-0.84;68.27;95334.05;1651013;85;21547;-52
2022/03/24 00:47:11;;;;;;;118.75;54.33;;;;;;;-0.83;68.45;95338.31;1650775;85;21064;-52
2022/03/24 00:49:41;;;;;;;108.67;54.08;;;;;;;-0.81;68.30;95332.02;1651719;85;21076;-51
2022/03/24 00:52:11;;;;;;;116.77;54.98;;;;;;;-0.88;67.79;95334.58;1650851;85;21033;-53
2022/03/24 00:54:39;;;;;;;116.57;53.80;;;;;;;-0.95;67.93;95325.78;1648646;85;21116;-53
2022/03/24 00:57:07;;;;;;;115.95;55.17;;;;;;;-0.97;67.89;95323.25;1640356;86;21001;-56
2022/03/24 00:59:36;;;;;;;200.45;87.02;;;;;;;-0.96;68.11;95315.36;1653695;85;21097;-52
2022/03/24 01:02:09;;;;;;;161.70;75.37;;;;;;;-0.94;68.04;95319.83;1653008;85;21103;-52
2022/03/24 01:04:34;;;;;;;137.65;63.73;;;;;;;-0.93;68.34;95320.03;1653278;85;21777;-51
2022/03/24 01:07:03;;;;;;;113.62;56.30;;;;;;;-0.87;68.28;95317.23;1653196;85;21114;-51
2022/03/24 01:09:31;;;;;;;107.67;50.00;;;;;;;-0.84;68.02;95315.16;1655361;85;21034;-54
2022/03/24 01:11:58;;;;;;;104.00;47.17;;;;;;;-0.83;67.82;95308.61;1672640;85;21031;-54
2022/03/24 01:14:27;;;;;;;108.87;48.63;;;;;;;-0.86;67.55;95303.94;1676357;84;21593;-53
2022/03/24 01:16:55;;;;;;;105.35;49.85;;;;;;;-0.90;67.61;95297.70;1669035;85;21011;-52
2022/03/24 01:19:24;;;;;;;107.03;49.38;;;;;;;-0.93;67.51;95297.84;1675273;85;21206;-51
2022/03/24 01:21:51;;;;;;;97.92;47.95;;;;;;;-0.93;67.40;95295.73;1682784;84;21002;-51
2022/03/24 01:24:20;;;;;;;103.42;47.55;;;;;;;-0.94;67.67;95292.83;1677821;84;21034;-53
2022/03/24 01:26:49;;;;;;;206.25;87.50;;;;;;;-0.88;67.60;95290.81;1678228;84;21022;-53
2022/03/24 01:29:16;;;;;;;135.20;59.40;;;;;;;-0.85;67.43;95283.89;1677356;84;21454;-50
2022/03/24 01:31:44;;;;;;;117.90;53.63;;;;;;;-0.87;67.40;95286.17;1654635;85;21436;-50
2022/03/24 01:34:11;;;;;;;99.22;46.83;;;;;;;-0.95;67.59;95281.81;1673455;85;21053;-51
2022/03/24 01:36:39;;;;;;;125.33;57.98;;;;;;;-1.01;67.62;95282.68;1672817;85;21553;-51
2022/03/24 01:39:08;;;;;;;131.03;58.40;;;;;;;-1.01;67.75;95269.73;1654055;85;21092;-51
2022/03/24 01:41:38;;;;;;;122.92;52.50;;;;;;;-1.00;67.87;95272.09;1675386;85;20970;-50
2022/03/24 01:44:12;;;;;;;86.55;43.00;;;;;;;-0.93;67.72;95261.98;1673809;85;21811;-52
2022/03/24 01:47:06;;;;;;;92.42;45.33;;;;;;;-0.93;67.60;95266.03;1676865;85;20994;-52
2022/03/24 01:49:36;;;;;;;91.02;43.60;;;;;;;-0.92;67.39;95263.54;1675987;85;20995;-50
2022/03/24 01:52:10;;;;;;;94.97;45.15;;;;;;;-0.90;67.32;95261.25;1675066;84;21074;-51
2022/03/24 01:54:40;;;;;;;83.80;44.23;;;;;;;-0.91;67.13;95255.09;1674687;84;21113;-52
2022/03/24 01:57:10;;;;;;;107.25;47.35;;;;;;;-0.97;67.14;95258.45;1675717;85;21590;-52
2022/03/24 01:59:37;;;;;;;146.87;64.05;;;;;;;-1.00;67.42;95264.58;1676186;84;21495;-51
2022/03/24 02:02:05;;;;;;;161.75;68.42;;;;;;;-1.01;67.64;95255.69;1654843;85;21446;-49
2022/03/24 02:04:35;;;;;;;121.17;55.67;;;;;;;-1.11;67.67;95256.86;1675441;84;21466;-50
2022/03/24 02:07:06;;;;;;;121.50;53.42;;;;;;;-1.21;67.96;95254.75;1671838;85;20975;-51
2022/03/24 02:09:38;;;;;;;127.70;57.65;;;;;;;-1.30;67.90;95251.52;1673392;84;20966;-50
2022/03/24 02:12:10;;;;;;;99.30;45.38;;;;;;;-1.36;67.97;95238.90;1672033;85;21086;-52
2022/03/24 02:14:39;;;;;;;113.70;52.60;;;;;;;-1.35;68.03;95251.83;1673398;85;21003;-50
2022/03/24 02:17:07;;;;;;;108.22;48.78;;;;;;;-1.34;67.98;95253.39;1674371;85;21101;-51
2022/03/24 02:19:36;;;;;;;113.52;51.90;;;;;;;-1.35;68.17;95245.85;1657456;85;20963;-51
2022/03/24 02:22:14;;;;;;;97.65;44.90;;;;;;;-1.31;68.14;95240.52;1684153;85;21228;-50
2022/03/24 02:24:43;;;;;;;98.87;44.05;;;;;;;-1.27;68.10;95236.75;1676756;85;20960;-49
2022/03/24 02:27:11;;;;;;;125.00;54.58;;;;;;;-1.31;67.86;95232.43;1679127;84;21014;-50
2022/03/24 02:29:38;;;;;;;116.50;51.65;;;;;;;-1.31;68.19;95234.55;1673190;85;21184;-52
2022/03/24 02:32:08;;;;;;;175.55;80.62;;;;;;;-1.29;68.22;95232.84;1671567;85;21035;-51
2022/03/24 02:34:47;;;;;;;158.52;73.05;;;;;;;-1.34;68.57;95229.11;1672882;84;21218;-52
2022/03/24 02:37:15;;;;;;;172.30;74.58;;;;;;;-1.39;68.99;95230.73;1667840;85;21007;-50
2022/03/24 02:39:45;;;;;;;155.78;68.55;;;;;;;-1.42;69.21;95226.86;1670521;85;21023;-51
2022/03/24 02:42:17;;;;;;;162.37;71.12;;;;;;;-1.46;69.35;95231.97;1673624;85;20995;-50
2022/03/24 02:44:49;;;;;;;154.85;69.77;;;;;;;-1.52;69.71;95230.72;1678021;85;20999;-50
2022/03/24 02:47:17;;;;;;;154.53;70.47;;;;;;;-1.54;69.88;95219.51;1658073;85;21140;-61
2022/03/24 02:49:48;;;;;;;140.32;64.20;;;;;;;-1.51;70.02;95226.88;1674281;85;20978;-51
2022/03/24 02:52:16;;;;;;;139.92;64.17;;;;;;;-1.53;69.88;95225.11;1674608;85;20974;-51
2022/03/24 02:54:43;;;;;;;152.70;71.20;;;;;;;-1.57;69.75;95222.90;1679402;84;21471;-52
2022/03/24 02:57:11;;;;;;;139.57;60.88;;;;;;;-1.63;69.93;95222.99;1676514;84;21050;-52
2022/03/24 02:59:39;;;;;;;105.27;51.28;;;;;;;-1.67;70.25;95223.50;1673777;84;21160;-50
2022/03/24 03:02:11;;;;;;;99.30;47.80;;;;;;;-1.72;70.02;95222.45;1677557;85;21070;-52
2022/03/24 03:04:39;;;;;;;86.12;42.90;;;;;;;-1.78;70.02;95217.13;1674299;85;21091;-51
2022/03/24 03:07:07;;;;;;;88.67;41.35;;;;;;;-1.79;69.81;95220.20;1672562;85;21642;-51
2022/03/24 03:09:36;;;;;;;110.88;51.37;;;;;;;-1.82;69.75;95212.24;1673457;85;20997;-53
2022/03/24 03:12:05;;;;;;;99.52;45.85;;;;;;;-1.80;69.89;95221.34;1672377;85;21155;-51
2022/03/24 03:14:32;;;;;;;140.88;65.83;;;;;;;-1.77;69.90;95215.44;1677404;85;21494;-50
2022/03/24 03:17:00;;;;;;;107.78;51.10;;;;;;;-1.76;69.92;95213.50;1675535;85;21070;-50
2022/03/24 03:19:28;;;;;;;146.65;68.22;;;;;;;-1.79;70.17;95204.78;1677294;84;21086;-51
2022/03/24 03:21:57;;;;;;;214.85;93.80;;;;;;;-1.82;70.12;95210.89;1682343;85;21097;-51
2022/03/24 03:24:24;;;;;;;177.40;77.65;;;;;;;-1.87;70.23;95206.36;1676583;85;21148;-51
2022/03/24 03:26:53;;;;;;;199.65;90.22;;;;;;;-1.88;70.40;95201.55;1684710;84;20974;-57
2022/03/24 03:29:24;;;;;;;174.35;79.47;;;;;;;-1.83;70.47;95203.16;1672510;85;21023;-51
2022/03/24 03:31:55;;;;;;;123.13;60.52;;;;;;;-1.79;70.65;95198.05;1671983;85;21089;-52
2022/03/24 03:34:25;;;;;;;112.83;52.10;;;;;;;-1.74;70.37;95197.74;1675034;84;21011;-52
2022/03/24 03:36:53;;;;;;;112.25;52.43;;;;;;;-1.73;70.35;95197.98;1677176;84;21160;-51
2022/03/24 03:39:22;;;;;;;96.78;46.08;;;;;;;-1.69;69.89;95195.53;1671553;85;21019;-52
2022/03/24 03:41:52;;;;;;;108.65;52.27;;;;;;;-1.68;69.63;95194.98;1671052;85;21038;-50
2022/03/24 03:44:19;;;;;;;121.82;55.65;;;;;;;-1.70;69.56;95194.56;1676252;85;21006;-50
2022/03/24 03:46:47;;;;;;;138.57;65.95;;;;;;;-1.67;69.60;95193.84;1676047;84;20986;-50
2022/03/24 03:49:16;;;;;;;182.20;85.10;;;;;;;-1.64;69.48;95192.56;1681199;84;21935;-52
2022/03/24 03:51:45;;;;;;;139.75;64.72;;;;;;;-1.63;69.42;95186.59;1678646;84;21502;-53
2022/03/24 03:54:12;;;;;;;110.50;53.63;;;;;;;-1.67;69.30;95185.16;1682639;84;20990;-50
2022/03/24 03:56:40;;;;;;;119.82;55.63;;;;;;;-1.70;69.29;95179.73;1674906;84;21026;-51
2022/03/24 03:59:09;;;;;;;110.00;54.05;;;;;;;-1.77;69.10;95184.42;1675530;85;21026;-52
2022/03/24 04:01:37;;;;;;;116.95;54.45;;;;;;;-1.83;69.10;95184.28;1659030;84;21037;-51
2022/03/24 04:04:06;;;;;;;101.60;54.25;;;;;;;-1.89;69.26;95185.17;1679081;85;20974;-51
2022/03/24 04:06:33;;;;;;;121.72;56.30;;;;;;;-1.85;69.42;95186.56;1674537;85;21077;-51
2022/03/24 04:09:00;;;;;;;145.72;65.50;;;;;;;-1.82;69.45;95175.84;1675175;84;21011;-52
2022/03/24 04:11:27;;;;;;;151.30;69.50;;;;;;;-1.80;69.61;95181.66;1676594;84;21624;-52
2022/03/24 04:13:55;;;;;;;151.32;66.00;;;;;;;-1.84;69.72;95180.82;1680021;84;21281;-50
2022/03/24 04:16:22;;;;;;;133.55;60.63;;;;;;;-1.86;70.21;95185.00;1672638;85;21023;-51
2022/03/24 04:18:50;;;;;;;185.82;79.75;;;;;;;-1.89;70.42;95181.12;1672025;85;21163;-51
2022/03/24 04:21:18;;;;;;;153.30;70.72;;;;;;;-1.86;70.36;95174.22;1674844;84;21522;-51
2022/03/24 04:23:46;;;;;;;134.40;61.35;;;;;;;-1.89;70.47;95175.73;1680011;84;21152;-52
2022/03/24 04:26:14;;;;;;;154.60;72.25;;;;;;;-1.92;70.58;95174.31;1661540;84;21041;-51
2022/03/24 04:28:44;;;;;;;155.90;65.20;;;;;;;-1.89;70.78;95174.38;1658521;85;21172;-52
2022/03/24 04:31:12;;;;;;;123.53;57.00;;;;;;;-1.90;70.71;95174.73;1676408;85;21026;-51
2022/03/24 04:33:40;;;;;;;126.58;54.98;;;;;;;-1.97;70.76;95165.94;1668946;85;21101;-50
2022/03/24 04:36:08;;;;;;;132.15;59.15;;;;;;;-1.98;70.96;95175.16;1652777;85;21476;-53
2022/03/24 04:38:37;;;;;;;134.15;56.68;;;;;;;-1.94;70.93;95172.55;1677500;84;21215;-51
2022/03/24 04:41:05;;;;;;;121.10;54.55;;;;;;;-1.90;70.87;95176.87;1678797;84;20974;-52
2022/03/24 04:43:34;;;;;;;142.13;58.58;;;;;;;-1.83;70.81;95172.94;1677558;85;21020;-51
2022/03/24 04:46:04;;;;;;;119.45;53.58;;;;;;;-1.77;70.67;95179.03;1675591;84;21122;-52
2022/03/24 04:48:38;;;;;;;116.22;56.50;;;;;;;-1.69;70.59;95175.31;1669408;85;21073;-52
2022/03/24 04:51:06;;;;;;;117.93;55.48;;;;;;;-1.58;70.49;95168.20;1673054;85;21637;-52
2022/03/24 04:53:34;;;;;;;127.90;54.10;;;;;;;-1.45;70.00;95168.78;1671816;85;21110;-51
2022/03/24 04:56:01;;;;;;;174.80;76.30;;;;;;;-1.37;69.55;95165.05;1670624;84;21067;-53
2022/03/24 04:58:29;;;;;;;252.15;88.78;;;;;;;-1.30;69.35;95170.58;1678429;84;21556;-51
2022/03/24 05:00:58;;;;;;;140.62;69.60;;;;;;;-1.33;69.08;95169.37;1679396;85;21003;-52
2022/03/24 05:03:26;;;;;;;141.70;71.10;;;;;;;-1.35;69.09;95170.89;1675253;84;21121;-53
2022/03/24 05:05:54;;;;;;;142.03;69.22;;;;;;;-1.32;69.40;95165.52;1672903;85;21463;-50
2022/03/24 05:08:23;;;;;;;140.28;71.62;;;;;;;-1.24;69.10;95161.02;1673765;85;21495;-50
2022/03/24 05:10:51;;;;;;;136.45;69.30;;;;;;;-1.18;69.19;95154.95;1672921;84;21015;-51
2022/03/24 05:13:20;;;;;;;169.72;76.07;;;;;;;-1.07;68.96;95152.42;1675430;85;21423;-52
2022/03/24 05:15:48;;;;;;;172.22;72.85;;;;;;;-1.02;68.67;95158.84;1672502;85;21262;-52
2022/03/24 05:18:15;;;;;;;162.68;75.12;;;;;;;-1.02;68.60;95160.20;1676618;85;21014;-52
2022/03/24 05:20:44;;;;;;;140.88;69.55;;;;;;;-1.02;68.85;95160.20;1654318;85;21019;-50
2022/03/24 05:23:13;;;;;;;127.55;66.33;;;;;;;-0.99;68.98;95156.80;1673282;85;20983;-51
2022/03/24 05:25:41;;;;;;;147.13;71.07;;;;;;;-0.88;69.02;95146.35;1673021;85;21204;-52
2022/03/24 05:28:08;;;;;;;118.75;63.87;;;;;;;-0.74;68.91;95149.81;1674550;85;21318;-52
2022/03/24 05:30:36;;;;;;;121.00;60.55;;;;;;;-0.60;68.79;95152.70;1675403;85;21399;-52
2022/03/24 05:33:04;;;;;;;140.80;74.07;;;;;;;-0.50;68.42;95146.64;1675898;85;21011;-53
2022/03/24 05:35:35;;;;;;;127.35;69.70;;;;;;;-0.46;68.03;95142.84;1669326;85;21019;-52
2022/03/24 05:38:05;;;;;;;119.13;63.17;;;;;;;-0.39;67.94;95142.16;1674682;85;21038;-52
2022/03/24 05:40:32;;;;;;;102.17;54.13;;;;;;;-0.29;68.09;95134.73;1675211;85;21153;-51
2022/03/24 05:43:02;;;;;;;85.70;49.63;;;;;;;-0.13;67.87;95129.91;1668245;85;21026;-50
2022/03/24 05:45:30;;;;;;;155.63;72.95;;;;;;;0.03;67.62;95135.31;1670596;85;21046;-53
2022/03/24 05:47:59;;;;;;;190.68;93.37;;;;;;;0.14;67.25;95130.77;1670708;85;21016;-50
2022/03/24 05:50:29;;;;;;;213.80;104.30;;;;;;;0.30;67.05;95129.41;1604499;85;21085;-50
2022/03/24 05:53:02;;;;;;;215.68;114.80;;;;;;;0.43;66.79;95130.66;1661509;85;21210;-50
2022/03/24 05:55:30;;;;;;;221.00;114.75;;;;;;;0.58;66.51;95124.23;1668222;85;21557;-55
2022/03/24 05:57:58;;;;;;;223.57;112.20;;;;;;;0.75;66.29;95122.23;1676514;85;21094;-56
2022/03/24 06:00:25;;;;;;;156.12;75.78;;;;;;;0.93;66.01;95125.09;1669191;85;21487;-53
2022/03/24 06:02:54;;;;;;;159.40;74.32;;;;;;;1.04;65.50;95119.94;1680222;84;21086;-49
2022/03/24 06:05:23;;;;;;;166.35;87.88;;;;;;;1.03;65.57;95117.03;1673412;85;21084;-51
2022/03/24 06:07:52;;;;;;;167.28;87.37;;;;;;;1.03;65.34;95119.74;1670258;86;20991;-52
2022/03/24 06:10:22;;;;;;;159.57;83.58;;;;;;;1.00;65.31;95112.34;1673556;85;21018;-52
2022/03/24 06:12:49;;;;;;;158.05;82.47;;;;;;;1.05;65.39;95106.59;1673074;84;21628;-53
2022/03/24 06:15:18;;;;;;;166.22;77.03;;;;;;;1.19;65.34;95110.75;1673562;84;21066;-53
2022/03/24 06:17:46;;;;;;;113.70;63.78;;;;;;;1.37;65.06;95103.49;1668303;84;21212;-51
2022/03/24 06:20:13;;;;;;;143.85;63.75;;;;;;;1.55;64.26;95101.64;1663609;84;21031;-53
2022/03/24 06:22:45;;;;;;;106.72;61.80;;;;;;;1.59;63.78;95103.78;1659907;85;21098;-52
2022/03/24 06:25:12;;;;;;;115.82;72.22;;;;;;;1.66;63.17;95092.95;1652562;84;21085;-53
2022/03/24 06:27:40;;;;;;;107.95;65.47;;;;;;;1.72;62.91;95092.77;1674045;84;21030;-51
2022/03/24 06:30:09;;;;;;;108.40;56.00;;;;;;;1.90;62.36;95084.11;1677818;85;21189;-51
2022/03/24 06:32:37;;;;;;;86.40;50.48;;;;;;;2.08;61.89;95084.93;1657690;85;21053;-53
2022/03/24 06:35:08;;;;;;;72.85;41.40;;;;;;;2.18;61.15;95085.55;1660702;85;21040;-51
2022/03/24 06:37:40;;;;;;;62.35;33.05;;;;;;;2.27;60.39;95069.08;1652088;85;21106;-51
2022/03/24 06:40:07;;;;;;;53.60;27.75;;;;;;;2.37;59.92;95068.89;1643879;85;21481;-51
2022/03/24 06:42:35;;;;;;;55.25;30.52;;;;;;;2.50;58.98;95068.72;1645818;84;21147;-54
2022/03/24 06:45:04;;;;;;;66.33;35.35;;;;;;;2.61;58.48;95065.40;1659045;84;20993;-53
2022/03/24 06:47:34;;;;;;;78.47;41.48;;;;;;;2.78;58.27;95071.41;1649830;84;20994;-53
2022/03/24 06:50:01;;;;;;;63.52;34.20;;;;;;;2.96;58.17;95062.66;1664195;85;21037;-51
2022/03/24 06:52:29;;;;;;;70.97;38.45;;;;;;;3.19;58.12;95060.27;1654188;84;21460;-55
2022/03/24 06:54:56;;;;;;;86.60;42.25;;;;;;;3.41;57.89;95067.98;1659775;84;21095;-53
2022/03/24 06:57:24;;;;;;;92.33;41.63;;;;;;;3.59;57.29;95058.60;1649031;85;21360;-52
2022/03/24 06:59:51;;;;;;;105.95;47.55;;;;;;;3.77;56.59;95067.47;1651097;84;21154;-53
2022/03/24 07:02:19;;;;;;;90.75;45.28;;;;;;;3.92;56.28;95065.44;1645431;84;21107;-57
2022/03/24 07:04:47;;;;;;;131.52;53.38;;;;;;;4.07;55.96;95064.20;1640718;84;21072;-54
2022/03/24 07:07:15;;;;;;;72.87;37.58;;;;;;;4.25;55.44;95064.87;1654761;84;22264;-55
2022/03/24 07:09:43;;;;;;;88.52;39.65;;;;;;;4.42;54.47;95059.89;1649279;85;20999;-53
2022/03/24 07:12:11;;;;;;;56.83;33.20;;;;;;;4.56;53.95;95058.41;1639288;85;21026;-53
2022/03/24 07:14:38;;;;;;;62.48;30.68;;;;;;;4.74;52.59;95063.91;1657437;85;21135;-52
2022/03/24 07:17:08;;;;;;;44.10;25.12;;;;;;;4.86;51.82;95051.16;1657276;84;21565;-52
2022/03/24 07:19:35;;;;;;;61.70;28.87;;;;;;;5.00;51.32;95066.61;1658771;84;21142;-52
2022/03/24 07:22:04;;;;;;;44.15;26.27;;;;;;;5.14;51.26;95050.12;1654989;84;21029;-53
2022/03/24 07:24:32;;;;;;;55.25;27.48;;;;;;;5.32;51.19;95054.20;1655798;84;21149;-53
2022/03/24 07:26:59;;;;;;;45.80;25.52;;;;;;;5.46;50.82;95048.60;1651386;84;21070;-53
2022/03/24 07:29:27;;;;;;;34.03;18.25;;;;;;;5.66;50.22;95048.17;1640251;84;21126;-55
2022/03/24 07:31:55;;;;;;;70.55;23.65;;;;;;;5.85;48.88;95051.67;1653905;84;21265;-55
2022/03/24 07:34:23;;;;;;;45.78;22.27;;;;;;;6.08;47.74;95046.28;1646745;85;21160;-56
2022/03/24 07:36:51;;;;;;;93.37;28.02;;;;;;;6.26;47.16;95045.45;1659382;84;21180;-54
2022/03/24 07:39:18;;;;;;;39.18;23.22;;;;;;;6.48;47.36;95039.27;1650242;85;21076;-53
2022/03/24 07:41:46;;;;;;;42.17;21.33;;;;;;;6.66;46.65;95039.77;1636600;84;21048;-54
2022/03/24 07:44:14;;;;;;;34.90;20.65;;;;;;;6.80;46.42;95032.71;1655441;85;21817;-55
2022/03/24 07:46:43;;;;;;;82.92;27.35;;;;;;;6.99;45.74;95038.05;1642151;85;21632;-55
2022/03/24 07:49:11;;;;;;;33.73;21.10;;;;;;;7.13;44.99;95036.62;1580222;88;21151;-54
2022/03/24 07:51:39;;;;;;;30.23;17.73;;;;;;;7.32;44.56;95024.94;1601199;87;21367;-53
2022/03/24 07:54:08;;;;;;;60.88;28.83;;;;;;;7.50;44.04;95024.00;1612736;87;21062;-52
2022/03/24 07:56:37;;;;;;;42.98;20.48;;;;;;;7.66;43.98;95028.19;1586783;87;21730;-55
2022/03/24 07:59:05;;;;;;;43.15;20.12;;;;;;;7.87;43.42;95029.73;1661268;84;21938;-55
2022/03/24 08:01:35;;;;;;;27.32;17.25;;;;;;;8.03;42.67;95016.86;1636392;85;22149;-55
2022/03/24 08:04:05;;;;;;;39.35;18.62;;;;;;;8.19;42.12;95014.19;1658826;84;21034;-55
2022/03/24 08:06:33;;;;;;;41.10;18.32;;;;;;;8.37;41.58;95007.72;1653079;85;21089;-54
2022/03/24 08:09:00;;;;;;;33.20;18.67;;;;;;;8.52;40.96;95013.63;1655018;84;21232;-55
2022/03/24 08:11:29;;;;;;;33.88;18.37;;;;;;;8.66;40.17;94998.98;1654409;84;20984;-52
2022/03/24 08:13:58;;;;;;;30.68;17.02;;;;;;;8.75;40.00;95006.03;1658970;84;21007;-52
2022/03/24 08:16:27;;;;;;;30.02;18.67;;;;;;;8.92;39.92;94999.33;1625150;85;21034;-54
2022/03/24 08:18:54;;;;;;;30.02;18.82;;;;;;;9.10;39.69;95002.41;1648066;85;21034;-53
2022/03/24 08:21:23;;;;;;;31.40;16.48;;;;;;;9.28;39.33;94999.34;1642136;85;21111;-55
2022/03/24 08:23:51;;;;;;;27.52;16.25;;;;;;;9.41;38.72;94991.95;1624393;86;21112;-55
2022/03/24 08:26:19;;;;;;;29.02;15.03;;;;;;;9.53;38.54;94995.95;1629060;86;21152;-61
2022/03/24 08:28:50;;;;;;;24.82;15.83;;;;;;;9.63;38.20;94997.64;1604263;86;21329;-55
2022/03/24 08:31:19;;;;;;;24.15;14.15;;;;;;;9.71;38.21;94990.73;1618302;86;21086;-55
2022/03/24 08:33:46;;;;;;;30.52;16.15;;;;;;;9.84;38.20;94985.43;1612642;87;21229;-55
2022/03/24 08:36:14;;;;;;;61.30;18.48;;;;;;;9.99;38.03;94984.44;1603554;86;21096;-56
2022/03/24 08:38:43;;;;;;;36.00;17.12;;;;;;;10.16;37.93;94976.30;1597341;87;22133;-57
2022/03/24 08:41:11;;;;;;;33.85;16.62;;;;;;;10.33;37.38;94970.87;1608194;87;21095;-54
2022/03/24 08:43:40;;;;;;;32.00;17.50;;;;;;;10.46;37.48;94971.63;1622309;86;21105;-53
2022/03/24 08:46:09;;;;;;;28.90;14.98;;;;;;;10.68;37.15;94961.50;1610780;86;21189;-55
2022/03/24 08:48:40;;;;;;;39.42;18.80;;;;;;;10.85;36.71;94963.08;1613751;86;21130;-55
2022/03/24 08:51:09;;;;;;;37.53;17.87;;;;;;;11.00;36.49;94959.99;1602094;86;21028;-56
2022/03/24 08:53:36;;;;;;;38.78;19.00;;;;;;;11.17;36.16;94951.73;1597714;87;21099;-54
2022/03/24 08:56:03;;;;;;;51.83;18.67;;;;;;;11.32;36.44;94960.30;1604863;87;21189;-54
2022/03/24 08:58:31;;;;;;;30.72;17.27;;;;;;;11.56;36.82;94950.42;1607927;87;21102;-58
2022/03/24 09:00:59;;;;;;;25.10;17.87;;;;;;;11.84;36.51;94944.64;1591094;87;21146;-53
2022/03/24 09:03:27;;;;;;;37.20;19.92;;;;;;;12.17;35.50;94949.11;1622956;86;21185;-59
2022/03/24 09:05:55;;;;;;;34.23;19.45;;;;;;;12.43;35.17;94947.09;1663882;84;21132;-58
2022/03/24 09:08:27;;;;;;;34.15;19.12;;;;;;;12.68;34.29;94938.61;1661691;84;21057;-59
2022/03/24 09:10:55;;;;;;;33.60;18.52;;;;;;;12.92;33.32;94934.06;1634494;85;22376;-55
2022/03/24 09:13:26;;;;;;;40.90;19.98;;;;;;;13.11;32.66;94938.42;1644078;84;21050;-54
2022/03/24 09:15:54;;;;;;;28.20;19.48;;;;;;;13.29;32.45;94934.30;1657515;84;21141;-54
2022/03/24 09:18:21;;;;;;;27.98;20.12;;;;;;;13.49;32.24;94924.93;1663313;84;21073;-54
2022/03/24 09:20:49;;;;;;;30.92;20.50;;;;;;;13.67;31.24;94926.30;1633863;85;21164;-54
2022/03/24 09:23:16;;;;;;;36.33;20.30;;;;;;;13.85;30.45;94926.28;1638917;85;21360;-55
2022/03/24 09:25:44;;;;;;;56.70;23.92;;;;;;;14.00;30.93;94916.87;1646850;85;21129;-53
2022/03/24 09:28:11;;;;;;;44.40;23.45;;;;;;;14.24;30.46;94917.77;1638492;84;21161;-55
2022/03/24 09:30:41;;;;;;;75.90;26.30;;;;;;;14.48;29.99;94906.14;1636048;85;21052;-54
2022/03/24 09:33:09;;;;;;;38.75;22.48;;;;;;;14.77;31.01;94920.92;1646903;85;21065;-54
2022/03/24 09:35:38;;;;;;;40.50;23.70;;;;;;;15.04;29.85;94901.35;1604375;86;21205;-52
2022/03/24 09:38:07;;;;;;;39.60;22.27;;;;;;;15.17;30.34;94915.75;1643123;85;21072;-52
2022/03/24 09:40:43;;;;;;;43.00;23.18;;;;;;;15.42;30.39;94910.36;1653269;85;21047;-54
2022/03/24 09:43:13;;;;;;;39.83;22.87;;;;;;;15.57;29.06;94917.47;1654666;84;21172;-51
2022/03/24 09:45:42;;;;;;;36.68;21.97;;;;;;;15.76;29.36;94920.86;1637817;84;21102;-51
2022/03/24 09:48:11;;;;;;;44.00;22.67;;;;;;;16.05;27.50;94911.16;1657356;84;21718;-54
2022/03/24 09:50:39;;;;;;;37.23;21.40;;;;;;;16.29;26.64;94912.61;1634697;85;21092;-52
2022/03/24 09:53:07;;;;;;;37.93;22.07;;;;;;;16.54;25.49;94903.08;1638159;84;21486;-54
2022/03/24 09:55:37;;;;;;;42.15;20.80;;;;;;;16.82;27.11;94903.50;1665474;84;21652;-54
2022/03/24 09:58:06;;;;;;;35.90;20.97;;;;;;;17.28;26.35;94906.54;1661219;84;21125;-57
2022/03/24 10:00:35;;;;;;;36.63;20.02;;;;;;;17.82;25.23;94899.38;1629943;84;21140;-54
2022/03/24 10:03:10;;;;;;;29.37;21.40;;;;;;;18.18;25.53;94898.09;1668582;84;21002;-57
2022/03/24 10:05:37;;;;;;;32.48;22.30;;;;;;;18.49;24.10;94911.44;1655471;84;21037;-58
2022/03/24 10:08:06;;;;;;;39.83;23.10;;;;;;;18.71;24.50;94903.89;1606149;85;21278;-56
2022/03/24 10:10:37;;;;;;;35.38;21.42;;;;;;;18.99;24.39;94895.10;1648711;84;21067;-59
2022/03/24 10:13:04;;;;;;;45.12;21.73;;;;;;;19.29;24.66;94897.69;1655583;85;22901;-56
2022/03/24 10:15:34;;;;;;;30.32;20.75;;;;;;;19.51;23.74;94901.36;1646581;83;21065;-54
2022/03/24 10:18:01;;;;;;;31.42;20.48;;;;;;;19.57;23.23;94897.95;1635216;85;21166;-55
2022/03/24 10:20:30;;;;;;;179.63;29.65;;;;;;;19.74;23.83;94895.98;1642743;84;21055;-52
2022/03/24 10:23:06;;;;;;;33.13;20.40;;;;;;;20.05;23.15;94900.67;1645895;83;21134;-56
2022/03/24 10:25:37;;;;;;;30.65;22.37;;;;;;;20.26;22.75;94909.73;1644000;85;21177;-56
2022/03/24 10:28:17;;;;;;;38.93;22.10;;;;;;;20.41;22.71;94901.23;1659345;85;21586;-54
2022/03/24 10:30:57;;;;;;;31.15;21.52;;;;;;;20.46;22.27;94894.91;1632965;85;21069;-55
2022/03/24 10:33:38;;;;;;;33.18;21.65;;;;;;;20.47;22.97;94894.25;1645292;84;21085;-55
2022/03/24 10:36:20;;;;;;;36.00;21.65;;;;;;;20.62;22.88;94893.38;1653653;84;22445;-55
2022/03/24 10:38:50;;;;;;;35.38;23.32;;;;;;;20.86;22.75;94896.44;1664855;84;21726;-54
2022/03/24 10:41:30;;;;;;;40.35;22.50;;;;;;;21.15;21.76;94898.04;1663726;83;21064;-55
2022/03/24 10:44:07;;;;;;;30.55;21.70;;;;;;;21.26;22.11;94901.48;1643649;84;21018;-58
2022/03/24 10:46:36;;;;;;;30.85;23.18;;;;;;;21.35;22.46;94900.56;1668149;84;21050;-54
2022/03/24 10:49:25;;;;;;;49.38;24.25;;;;;;;21.61;22.24;94893.20;1669313;84;21592;-55
2022/03/24 10:51:53;;;;;;;37.38;22.22;;;;;;;21.84;21.37;94898.22;1651608;84;21302;-54
2022/03/24 10:54:46;;;;;;;37.05;23.20;;;;;;;21.99;21.77;94903.52;1661154;84;21060;-58
2022/03/24 10:57:19;;;;;;;37.38;23.77;;;;;;;22.00;21.06;94892.44;1642057;84;21163;-58
2022/03/24 10:59:58;;;;;;;34.70;22.13;;;;;;;21.91;21.71;94896.92;1656793;85;21061;-56
2022/03/24 11:02:23;;;;;;;46.98;22.00;;;;;;;22.04;21.53;94895.84;1584881;88;21002;-55
2022/03/24 11:04:51;;;;;;;38.45;23.47;;;;;;;22.14;21.06;94888.63;1652311;84;21138;-58
2022/03/24 11:07:27;;;;;;;35.15;21.80;;;;;;;22.17;20.85;94883.41;1604693;86;21055;-54
2022/03/24 11:09:56;;;;;;;34.53;22.37;;;;;;;22.26;20.95;94897.10;1646123;84;21577;-55
2022/03/24 11:12:32;;;;;;;31.05;22.13;;;;;;;22.56;21.29;94884.56;1648705;84;21093;-56
2022/03/24 11:15:01;;;;;;;38.60;22.02;;;;;;;22.72;21.31;94881.64;1650458;84;21088;-57
2022/03/24 11:17:34;;;;;;;35.23;22.65;;;;;;;22.95;20.38;94884.36;1654095;85;21187;-55
2022/03/24 11:20:23;;;;;;;29.37;20.62;;;;;;;22.98;20.15;94884.72;1667303;84;21048;-56
2022/03/24 11:22:55;;;;;;;43.13;23.15;;;;;;;23.08;20.52;94877.48;1660817;84;21041;-57